sensor_id;sensor_type;location;lat;lon;timestamp;P1;durP1;ratioP1;P2;durP2;ratioP2
38007;SDS011;75335;50.812;12.376;2024-01-27T09:38:33;26.27;;;5.25;;
38007;SDS011;75335;50.812;12.376;2024-01-27T09:42:13;21.95;;;4.45;;
38007;SDS011;75335;50.812;12.376;2024-01-27T09:44:24;19.95;;;4.03;;
38007;SDS011;75335;50.812;12.376;2024-01-27T09:47:21;18.70;;;3.78;;
38007;SDS011;75335;50.812;12.376;2024-01-27T09:49:49;25.10;;;5.00;;
38007;SDS011;75335;50.812;12.376;2024-01-27T09:52:31;27.35;;;5.40;;
38007;SDS011;75335;50.812;12.376;2024-01-27T09:55:15;18.17;;;4.82;;
38007;SDS011;75335;50.812;12.376;2024-01-27T09:57:49;21.75;;;5.28;;
38007;SDS011;75335;50.812;12.376;2024-01-27T10:00:18;34.70;;;5.95;;
38007;SDS011;75335;50.812;12.376;2024-01-27T10:02:54;20.13;;;5.22;;
38007;SDS011;75335;50.812;12.376;2024-01-27T10:05:35;22.90;;;6.03;;
38007;SDS011;75335;50.812;12.376;2024-01-27T10:08:20;24.85;;;4.68;;
38007;SDS011;75335;50.812;12.376;2024-01-27T10:10:49;24.67;;;5.75;;
38007;SDS011;75335;50.812;12.376;2024-01-27T10:13:25;21.40;;;4.38;;
38007;SDS011;75335;50.812;12.376;2024-01-27T10:16:03;19.85;;;4.55;;
38007;SDS011;75335;50.812;12.376;2024-01-27T10:18:40;31.95;;;6.68;;
38007;SDS011;75335;50.812;12.376;2024-01-27T10:21:13;19.60;;;4.28;;
38007;SDS011;75335;50.812;12.376;2024-01-27T10:23:53;23.50;;;4.75;;
38007;SDS011;75335;50.812;12.376;2024-01-27T10:26:39;23.58;;;4.82;;
38007;SDS011;75335;50.812;12.376;2024-01-27T10:29:29;33.90;;;5.55;;
38007;SDS011;75335;50.812;12.376;2024-01-27T10:32:08;32.47;;;4.68;;
38007;SDS011;75335;50.812;12.376;2024-01-27T10:34:45;21.33;;;4.53;;
38007;SDS011;75335;50.812;12.376;2024-01-27T10:37:31;26.55;;;4.63;;
38007;SDS011;75335;50.812;12.376;2024-01-27T10:40:09;20.92;;;4.47;;
38007;SDS011;75335;50.812;12.376;2024-01-27T10:43:01;20.25;;;4.43;;
38007;SDS011;75335;50.812;12.376;2024-01-27T10:45:34;20.23;;;4.88;;
38007;SDS011;75335;50.812;12.376;2024-01-27T10:48:07;27.92;;;5.13;;
38007;SDS011;75335;50.812;12.376;2024-01-27T10:50:47;34.30;;;5.47;;
38007;SDS011;75335;50.812;12.376;2024-01-27T10:53:21;16.55;;;4.20;;
38007;SDS011;75335;50.812;12.376;2024-01-27T10:55:55;24.42;;;5.13;;
38007;SDS011;75335;50.812;12.376;2024-01-27T10:58:25;21.92;;;4.28;;
38007;SDS011;75335;50.812;12.376;2024-01-27T11:01:00;30.45;;;5.32;;
38007;SDS011;75335;50.812;12.376;2024-01-27T11:03:31;29.27;;;6.30;;
38007;SDS011;75335;50.812;12.376;2024-01-27T11:06:02;19.58;;;4.18;;
38007;SDS011;75335;50.812;12.376;2024-01-27T11:08:33;30.85;;;4.82;;
38007;SDS011;75335;50.812;12.376;2024-01-27T11:11:05;22.50;;;4.72;;
38007;SDS011;75335;50.812;12.376;2024-01-27T11:13:36;23.35;;;4.28;;
38007;SDS011;75335;50.812;12.376;2024-01-27T11:16:13;23.17;;;5.15;;
38007;SDS011;75335;50.812;12.376;2024-01-27T11:18:45;25.70;;;4.47;;
38007;SDS011;75335;50.812;12.376;2024-01-27T11:21:18;19.80;;;5.07;;
38007;SDS011;75335;50.812;12.376;2024-01-27T11:23:50;17.63;;;4.43;;
38007;SDS011;75335;50.812;12.376;2024-01-27T11:26:22;20.00;;;4.55;;
38007;SDS011;75335;50.812;12.376;2024-01-27T11:28:52;20.67;;;4.60;;
38007;SDS011;75335;50.812;12.376;2024-01-27T11:31:21;17.45;;;4.15;;
38007;SDS011;75335;50.812;12.376;2024-01-27T11:33:51;25.23;;;5.10;;
38007;SDS011;75335;50.812;12.376;2024-01-27T11:36:23;24.58;;;4.30;;
38007;SDS011;75335;50.812;12.376;2024-01-27T11:38:52;23.15;;;4.78;;
38007;SDS011;75335;50.812;12.376;2024-01-27T11:41:27;18.90;;;4.03;;
38007;SDS011;75335;50.812;12.376;2024-01-27T11:43:56;22.42;;;4.20;;
38007;SDS011;75335;50.812;12.376;2024-01-27T11:46:26;19.65;;;4.05;;
38007;SDS011;75335;50.812;12.376;2024-01-27T11:48:54;19.48;;;3.95;;
38007;SDS011;75335;50.812;12.376;2024-01-27T11:51:22;22.52;;;3.92;;
38007;SDS011;75335;50.812;12.376;2024-01-27T11:53:51;19.15;;;4.05;;
38007;SDS011;75335;50.812;12.376;2024-01-27T11:56:20;14.32;;;3.50;;
38007;SDS011;75335;50.812;12.376;2024-01-27T11:58:50;21.65;;;4.63;;
38007;SDS011;75335;50.812;12.376;2024-01-27T12:01:19;22.10;;;4.63;;
38007;SDS011;75335;50.812;12.376;2024-01-27T12:03:47;20.48;;;4.53;;
38007;SDS011;75335;50.812;12.376;2024-01-27T12:06:15;16.30;;;3.65;;
38007;SDS011;75335;50.812;12.376;2024-01-27T12:08:43;25.33;;;3.83;;
38007;SDS011;75335;50.812;12.376;2024-01-27T12:11:12;16.55;;;3.75;;
38007;SDS011;75335;50.812;12.376;2024-01-27T12:13:41;19.80;;;4.55;;
38007;SDS011;75335;50.812;12.376;2024-01-27T12:16:10;20.40;;;3.90;;
38007;SDS011;75335;50.812;12.376;2024-01-27T12:18:38;18.98;;;3.97;;
38007;SDS011;75335;50.812;12.376;2024-01-27T12:21:07;15.43;;;3.33;;
38007;SDS011;75335;50.812;12.376;2024-01-27T12:23:35;13.63;;;3.20;;
38007;SDS011;75335;50.812;12.376;2024-01-27T12:26:03;13.27;;;3.47;;
38007;SDS011;75335;50.812;12.376;2024-01-27T12:28:31;19.83;;;4.15;;
38007;SDS011;75335;50.812;12.376;2024-01-27T12:31:03;20.25;;;4.88;;
38007;SDS011;75335;50.812;12.376;2024-01-27T12:33:33;18.50;;;3.70;;
38007;SDS011;75335;50.812;12.376;2024-01-27T12:36:01;23.10;;;4.00;;
38007;SDS011;75335;50.812;12.376;2024-01-27T12:38:29;19.38;;;5.53;;
38007;SDS011;75335;50.812;12.376;2024-01-27T12:40:57;19.92;;;4.25;;
38007;SDS011;75335;50.812;12.376;2024-01-27T12:43:26;12.82;;;3.45;;
38007;SDS011;75335;50.812;12.376;2024-01-27T12:45:56;11.02;;;3.33;;
38007;SDS011;75335;50.812;12.376;2024-01-27T12:48:24;17.20;;;3.90;;
38007;SDS011;75335;50.812;12.376;2024-01-27T12:50:53;17.65;;;3.83;;
38007;SDS011;75335;50.812;12.376;2024-01-27T12:53:28;17.95;;;3.83;;
38007;SDS011;75335;50.812;12.376;2024-01-27T12:56:01;12.73;;;2.90;;
38007;SDS011;75335;50.812;12.376;2024-01-27T12:58:36;14.20;;;3.92;;
38007;SDS011;75335;50.812;12.376;2024-01-27T13:01:15;14.40;;;3.30;;
38007;SDS011;75335;50.812;12.376;2024-01-27T13:03:50;15.13;;;3.60;;
38007;SDS011;75335;50.812;12.376;2024-01-27T13:06:36;16.52;;;3.75;;
38007;SDS011;75335;50.812;12.376;2024-01-27T13:09:26;15.27;;;3.17;;
38007;SDS011;75335;50.812;12.376;2024-01-27T13:12:10;20.58;;;4.22;;
38007;SDS011;75335;50.812;12.376;2024-01-27T13:14:47;14.88;;;3.45;;
38007;SDS011;75335;50.812;12.376;2024-01-27T13:17:28;18.00;;;3.17;;
38007;SDS011;75335;50.812;12.376;2024-01-27T13:20:09;16.55;;;3.33;;
38007;SDS011;75335;50.812;12.376;2024-01-27T13:22:44;18.45;;;3.33;;
38007;SDS011;75335;50.812;12.376;2024-01-27T13:25:14;17.58;;;4.05;;
38007;SDS011;75335;50.812;12.376;2024-01-27T13:27:46;23.60;;;5.85;;
38007;SDS011;75335;50.812;12.376;2024-01-27T13:30:27;15.75;;;3.85;;
38007;SDS011;75335;50.812;12.376;2024-01-27T13:33:12;18.80;;;3.60;;
38007;SDS011;75335;50.812;12.376;2024-01-27T13:35:58;20.75;;;4.20;;
38007;SDS011;75335;50.812;12.376;2024-01-27T13:38:46;24.13;;;5.40;;
38007;SDS011;75335;50.812;12.376;2024-01-27T13:41:18;22.23;;;4.53;;
38007;SDS011;75335;50.812;12.376;2024-01-27T13:43:48;17.60;;;3.50;;
38007;SDS011;75335;50.812;12.376;2024-01-27T13:46:18;16.42;;;2.72;;
38007;SDS011;75335;50.812;12.376;2024-01-27T13:48:51;14.00;;;3.47;;
38007;SDS011;75335;50.812;12.376;2024-01-27T13:51:23;15.30;;;3.38;;
38007;SDS011;75335;50.812;12.376;2024-01-27T13:53:56;16.25;;;3.42;;
38007;SDS011;75335;50.812;12.376;2024-01-27T13:56:25;16.80;;;3.50;;
38007;SDS011;75335;50.812;12.376;2024-01-27T13:58:58;17.95;;;3.50;;
38007;SDS011;75335;50.812;12.376;2024-01-27T14:01:30;12.32;;;3.58;;
38007;SDS011;75335;50.812;12.376;2024-01-27T14:04:00;19.00;;;4.28;;
38007;SDS011;75335;50.812;12.376;2024-01-27T14:06:29;16.48;;;3.85;;
38007;SDS011;75335;50.812;12.376;2024-01-27T14:09:03;22.08;;;4.80;;
38007;SDS011;75335;50.812;12.376;2024-01-27T14:11:52;17.90;;;4.38;;
38007;SDS011;75335;50.812;12.376;2024-01-27T14:14:33;22.90;;;4.18;;
38007;SDS011;75335;50.812;12.376;2024-01-27T14:17:07;17.05;;;3.80;;
38007;SDS011;75335;50.812;12.376;2024-01-27T14:19:35;15.65;;;3.83;;
38007;SDS011;75335;50.812;12.376;2024-01-27T14:24:40;15.70;;;3.30;;
38007;SDS011;75335;50.812;12.376;2024-01-27T14:27:11;15.65;;;3.33;;
38007;SDS011;75335;50.812;12.376;2024-01-27T14:29:48;14.82;;;3.85;;
38007;SDS011;75335;50.812;12.376;2024-01-27T14:32:23;16.90;;;3.33;;
38007;SDS011;75335;50.812;12.376;2024-01-27T14:35:01;15.48;;;2.95;;
38007;SDS011;75335;50.812;12.376;2024-01-27T14:37:33;13.73;;;3.33;;
38007;SDS011;75335;50.812;12.376;2024-01-27T14:40:21;15.10;;;3.65;;
38007;SDS011;75335;50.812;12.376;2024-01-27T14:42:55;19.70;;;3.70;;
38007;SDS011;75335;50.812;12.376;2024-01-27T14:45:25;14.55;;;3.40;;
38007;SDS011;75335;50.812;12.376;2024-01-27T14:47:56;22.00;;;3.22;;
38007;SDS011;75335;50.812;12.376;2024-01-27T14:50:48;14.50;;;3.58;;
38007;SDS011;75335;50.812;12.376;2024-01-27T14:53:25;19.77;;;3.47;;
38007;SDS011;75335;50.812;12.376;2024-01-27T14:55:59;17.25;;;3.92;;
38007;SDS011;75335;50.812;12.376;2024-01-27T14:58:36;22.40;;;3.92;;
38007;SDS011;75335;50.812;12.376;2024-01-27T15:01:21;20.38;;;3.53;;
38007;SDS011;75335;50.812;12.376;2024-01-27T15:03:51;20.52;;;4.15;;
38007;SDS011;75335;50.812;12.376;2024-01-27T15:06:36;14.68;;;3.08;;
38007;SDS011;75335;50.812;12.376;2024-01-27T15:09:09;15.80;;;3.05;;
38007;SDS011;75335;50.812;12.376;2024-01-27T15:11:49;12.00;;;2.92;;
38007;SDS011;75335;50.812;12.376;2024-01-27T15:14:21;15.48;;;3.47;;
38007;SDS011;75335;50.812;12.376;2024-01-27T15:16:55;16.58;;;4.22;;
38007;SDS011;75335;50.812;12.376;2024-01-27T15:19:35;17.20;;;3.35;;
38007;SDS011;75335;50.812;12.376;2024-01-27T15:22:37;13.02;;;2.78;;
38007;SDS011;75335;50.812;12.376;2024-01-27T15:25:50;21.00;;;5.00;;
38007;SDS011;75335;50.812;12.376;2024-01-27T15:28:23;17.02;;;3.53;;
38007;SDS011;75335;50.812;12.376;2024-01-27T15:33:23;14.23;;;3.67;;
38007;SDS011;75335;50.812;12.376;2024-01-27T15:35:52;17.25;;;4.57;;
38007;SDS011;75335;50.812;12.376;2024-01-27T15:38:20;18.77;;;3.78;;
38007;SDS011;75335;50.812;12.376;2024-01-27T15:44:37;21.77;;;4.28;;
38007;SDS011;75335;50.812;12.376;2024-01-27T15:59:14;20.08;;;4.28;;
38007;SDS011;75335;50.812;12.376;2024-01-27T16:02:09;12.65;;;4.03;;
38007;SDS011;75335;50.812;12.376;2024-01-27T16:24:16;19.75;;;4.45;;
38007;SDS011;75335;50.812;12.376;2024-01-27T16:27:01;19.55;;;5.05;;
38007;SDS011;75335;50.812;12.376;2024-01-27T16:29:31;20.67;;;4.05;;
38007;SDS011;75335;50.812;12.376;2024-01-27T16:32:18;25.00;;;4.68;;
38007;SDS011;75335;50.812;12.376;2024-01-27T16:58:45;23.98;;;8.98;;
38007;SDS011;75335;50.812;12.376;2024-01-27T17:01:33;23.98;;;8.07;;
38007;SDS011;75335;50.812;12.376;2024-01-27T17:04:01;26.33;;;8.32;;
38007;SDS011;75335;50.812;12.376;2024-01-27T17:06:31;28.50;;;7.60;;
38007;SDS011;75335;50.812;12.376;2024-01-27T17:09:18;22.00;;;8.30;;
38007;SDS011;75335;50.812;12.376;2024-01-27T17:11:48;24.15;;;9.38;;
38007;SDS011;75335;50.812;12.376;2024-01-27T17:14:33;29.30;;;10.20;;
38007;SDS011;75335;50.812;12.376;2024-01-27T17:17:10;23.27;;;8.20;;
38007;SDS011;75335;50.812;12.376;2024-01-27T17:19:48;24.58;;;7.93;;
38007;SDS011;75335;50.812;12.376;2024-01-27T17:22:24;20.92;;;6.50;;
38007;SDS011;75335;50.812;12.376;2024-01-27T17:26:12;29.23;;;7.43;;
38007;SDS011;75335;50.812;12.376;2024-01-27T17:28:51;20.45;;;7.88;;
38007;SDS011;75335;50.812;12.376;2024-01-27T17:31:20;23.20;;;8.60;;
38007;SDS011;75335;50.812;12.376;2024-01-27T17:34:15;24.88;;;6.88;;
38007;SDS011;75335;50.812;12.376;2024-01-27T17:36:56;21.75;;;7.10;;
38007;SDS011;75335;50.812;12.376;2024-01-27T17:39:24;22.63;;;7.50;;
38007;SDS011;75335;50.812;12.376;2024-01-27T17:41:55;24.30;;;7.30;;
38007;SDS011;75335;50.812;12.376;2024-01-27T17:44:23;20.00;;;7.55;;
38007;SDS011;75335;50.812;12.376;2024-01-27T17:46:52;25.10;;;7.40;;
38007;SDS011;75335;50.812;12.376;2024-01-27T17:49:21;27.60;;;8.63;;
38007;SDS011;75335;50.812;12.376;2024-01-27T17:51:48;23.80;;;8.57;;
38007;SDS011;75335;50.812;12.376;2024-01-27T17:54:19;26.00;;;8.75;;
38007;SDS011;75335;50.812;12.376;2024-01-27T17:56:46;27.50;;;8.32;;
38007;SDS011;75335;50.812;12.376;2024-01-27T17:59:20;27.15;;;10.23;;
38007;SDS011;75335;50.812;12.376;2024-01-27T18:01:48;26.85;;;9.77;;
38007;SDS011;75335;50.812;12.376;2024-01-27T18:04:17;26.05;;;9.32;;
38007;SDS011;75335;50.812;12.376;2024-01-27T18:06:47;31.10;;;9.93;;
38007;SDS011;75335;50.812;12.376;2024-01-27T18:09:14;25.27;;;8.98;;
38007;SDS011;75335;50.812;12.376;2024-01-27T18:11:42;33.38;;;10.70;;
38007;SDS011;75335;50.812;12.376;2024-01-27T18:14:16;28.92;;;8.93;;
38007;SDS011;75335;50.812;12.376;2024-01-27T18:16:45;22.35;;;8.25;;
38007;SDS011;75335;50.812;12.376;2024-01-27T18:19:18;49.20;;;22.38;;
38007;SDS011;75335;50.812;12.376;2024-01-27T18:21:46;25.48;;;9.73;;
38007;SDS011;75335;50.812;12.376;2024-01-27T18:24:24;28.08;;;11.15;;
38007;SDS011;75335;50.812;12.376;2024-01-27T18:26:54;32.10;;;11.25;;
38007;SDS011;75335;50.812;12.376;2024-01-27T18:29:24;27.30;;;10.38;;
38007;SDS011;75335;50.812;12.376;2024-01-27T18:32:07;25.13;;;8.40;;
38007;SDS011;75335;50.812;12.376;2024-01-27T18:34:47;21.08;;;8.55;;
38007;SDS011;75335;50.812;12.376;2024-01-27T18:37:23;24.17;;;7.50;;
38007;SDS011;75335;50.812;12.376;2024-01-27T18:39:59;21.63;;;7.18;;
38007;SDS011;75335;50.812;12.376;2024-01-27T18:42:29;19.88;;;6.85;;
38007;SDS011;75335;50.812;12.376;2024-01-27T18:45:13;23.20;;;7.82;;
38007;SDS011;75335;50.812;12.376;2024-01-27T18:47:54;25.55;;;7.57;;
38007;SDS011;75335;50.812;12.376;2024-01-27T18:50:22;29.38;;;7.65;;
38007;SDS011;75335;50.812;12.376;2024-01-27T18:53:01;24.40;;;8.02;;
38007;SDS011;75335;50.812;12.376;2024-01-27T18:55:41;29.95;;;8.25;;
38007;SDS011;75335;50.812;12.376;2024-01-27T18:58:11;26.70;;;9.07;;
38007;SDS011;75335;50.812;12.376;2024-01-27T19:00:40;38.13;;;9.88;;
38007;SDS011;75335;50.812;12.376;2024-01-27T19:06:02;25.15;;;8.90;;
38007;SDS011;75335;50.812;12.376;2024-01-27T19:08:30;24.50;;;9.07;;
38007;SDS011;75335;50.812;12.376;2024-01-27T19:10:59;24.73;;;8.80;;
38007;SDS011;75335;50.812;12.376;2024-01-27T19:13:27;27.67;;;8.68;;
38007;SDS011;75335;50.812;12.376;2024-01-27T19:15:54;29.08;;;9.45;;
38007;SDS011;75335;50.812;12.376;2024-01-27T19:18:22;30.33;;;8.73;;
38007;SDS011;75335;50.812;12.376;2024-01-27T19:20:52;31.40;;;8.52;;
38007;SDS011;75335;50.812;12.376;2024-01-27T19:23:20;27.98;;;8.60;;
38007;SDS011;75335;50.812;12.376;2024-01-27T19:25:48;25.80;;;7.65;;
38007;SDS011;75335;50.812;12.376;2024-01-27T19:28:17;32.20;;;8.20;;
38007;SDS011;75335;50.812;12.376;2024-01-27T19:30:45;27.95;;;9.43;;
38007;SDS011;75335;50.812;12.376;2024-01-27T19:33:12;26.15;;;8.98;;
38007;SDS011;75335;50.812;12.376;2024-01-27T19:35:41;26.60;;;8.00;;
38007;SDS011;75335;50.812;12.376;2024-01-27T19:38:10;28.30;;;7.65;;
38007;SDS011;75335;50.812;12.376;2024-01-27T19:40:40;19.75;;;7.57;;
38007;SDS011;75335;50.812;12.376;2024-01-27T19:43:08;22.27;;;7.38;;
38007;SDS011;75335;50.812;12.376;2024-01-27T19:45:36;32.03;;;8.63;;
38007;SDS011;75335;50.812;12.376;2024-01-27T19:48:04;28.98;;;9.75;;
38007;SDS011;75335;50.812;12.376;2024-01-27T19:50:34;29.25;;;10.18;;
38007;SDS011;75335;50.812;12.376;2024-01-27T19:53:02;38.90;;;11.52;;
38007;SDS011;75335;50.812;12.376;2024-01-27T19:55:37;34.22;;;12.43;;
38007;SDS011;75335;50.812;12.376;2024-01-27T19:58:05;32.70;;;11.38;;
38007;SDS011;75335;50.812;12.376;2024-01-27T20:00:33;31.40;;;10.05;;
38007;SDS011;75335;50.812;12.376;2024-01-27T20:03:00;33.72;;;10.82;;
38007;SDS011;75335;50.812;12.376;2024-01-27T20:05:28;28.95;;;11.55;;
38007;SDS011;75335;50.812;12.376;2024-01-27T20:07:57;27.98;;;11.55;;
38007;SDS011;75335;50.812;12.376;2024-01-27T20:10:26;32.92;;;12.45;;
38007;SDS011;75335;50.812;12.376;2024-01-27T20:12:55;32.17;;;10.45;;
38007;SDS011;75335;50.812;12.376;2024-01-27T20:15:25;28.52;;;10.65;;
38007;SDS011;75335;50.812;12.376;2024-01-27T20:17:56;31.48;;;10.77;;
38007;SDS011;75335;50.812;12.376;2024-01-27T20:20:24;26.83;;;10.90;;
38007;SDS011;75335;50.812;12.376;2024-01-27T20:22:55;27.98;;;10.02;;
38007;SDS011;75335;50.812;12.376;2024-01-27T20:25:22;37.95;;;13.45;;
38007;SDS011;75335;50.812;12.376;2024-01-27T20:27:50;40.85;;;12.90;;
38007;SDS011;75335;50.812;12.376;2024-01-27T20:30:20;37.17;;;12.57;;
38007;SDS011;75335;50.812;12.376;2024-01-27T20:35:28;27.55;;;9.32;;
38007;SDS011;75335;50.812;12.376;2024-01-27T20:38:04;30.17;;;9.85;;
38007;SDS011;75335;50.812;12.376;2024-01-27T20:40:39;23.48;;;10.88;;
38007;SDS011;75335;50.812;12.376;2024-01-27T20:43:29;27.63;;;10.10;;
38007;SDS011;75335;50.812;12.376;2024-01-27T20:46:09;27.83;;;10.25;;
38007;SDS011;75335;50.812;12.376;2024-01-27T20:48:40;24.38;;;9.30;;
38007;SDS011;75335;50.812;12.376;2024-01-27T20:51:29;30.58;;;10.25;;
38007;SDS011;75335;50.812;12.376;2024-01-27T20:54:23;26.55;;;10.10;;
38007;SDS011;75335;50.812;12.376;2024-01-27T20:57:14;28.35;;;9.40;;
38007;SDS011;75335;50.812;12.376;2024-01-27T20:59:44;30.75;;;9.93;;
38007;SDS011;75335;50.812;12.376;2024-01-27T21:02:16;23.58;;;9.65;;
38007;SDS011;75335;50.812;12.376;2024-01-27T21:04:50;32.97;;;12.00;;
38007;SDS011;75335;50.812;12.376;2024-01-27T21:07:18;33.13;;;10.43;;
38007;SDS011;75335;50.812;12.376;2024-01-27T21:09:47;32.83;;;10.38;;
38007;SDS011;75335;50.812;12.376;2024-01-27T21:12:15;32.92;;;9.70;;
38007;SDS011;75335;50.812;12.376;2024-01-27T21:14:43;35.42;;;10.35;;
38007;SDS011;75335;50.812;12.376;2024-01-27T21:17:10;30.58;;;10.02;;
38007;SDS011;75335;50.812;12.376;2024-01-27T21:19:47;37.92;;;11.45;;
38007;SDS011;75335;50.812;12.376;2024-01-27T21:22:19;30.60;;;10.63;;
38007;SDS011;75335;50.812;12.376;2024-01-27T21:24:47;39.90;;;10.98;;
38007;SDS011;75335;50.812;12.376;2024-01-27T21:27:15;22.88;;;9.27;;
38007;SDS011;75335;50.812;12.376;2024-01-27T21:29:43;26.17;;;8.95;;
38007;SDS011;75335;50.812;12.376;2024-01-27T21:32:12;22.13;;;10.20;;
38007;SDS011;75335;50.812;12.376;2024-01-27T21:34:40;36.15;;;11.00;;
38007;SDS011;75335;50.812;12.376;2024-01-27T21:37:09;27.48;;;9.25;;
38007;SDS011;75335;50.812;12.376;2024-01-27T21:39:37;31.65;;;10.00;;
38007;SDS011;75335;50.812;12.376;2024-01-27T21:42:05;26.60;;;8.63;;
38007;SDS011;75335;50.812;12.376;2024-01-27T21:44:35;27.63;;;9.60;;
38007;SDS011;75335;50.812;12.376;2024-01-27T21:47:05;27.60;;;9.63;;
38007;SDS011;75335;50.812;12.376;2024-01-27T21:49:33;40.40;;;9.77;;
38007;SDS011;75335;50.812;12.376;2024-01-27T21:54:34;22.38;;;9.23;;
38007;SDS011;75335;50.812;12.376;2024-01-27T22:00:34;34.88;;;9.70;;
38007;SDS011;75335;50.812;12.376;2024-01-27T22:03:02;28.33;;;10.73;;
38007;SDS011;75335;50.812;12.376;2024-01-27T22:05:30;29.52;;;10.43;;
38007;SDS011;75335;50.812;12.376;2024-01-27T22:07:58;34.92;;;10.02;;
38007;SDS011;75335;50.812;12.376;2024-01-27T22:10:30;29.33;;;10.43;;
38007;SDS011;75335;50.812;12.376;2024-01-27T22:13:00;22.15;;;9.18;;
38007;SDS011;75335;50.812;12.376;2024-01-27T22:15:28;33.55;;;10.40;;
38007;SDS011;75335;50.812;12.376;2024-01-27T22:17:59;28.38;;;10.50;;
38007;SDS011;75335;50.812;12.376;2024-01-27T22:20:31;33.53;;;10.35;;
38007;SDS011;75335;50.812;12.376;2024-01-27T22:23:02;30.20;;;9.43;;
38007;SDS011;75335;50.812;12.376;2024-01-27T22:25:31;30.90;;;11.95;;
38007;SDS011;75335;50.812;12.376;2024-01-27T22:28:01;30.60;;;10.37;;
38007;SDS011;75335;50.812;12.376;2024-01-27T22:30:29;36.05;;;11.75;;
38007;SDS011;75335;50.812;12.376;2024-01-27T22:32:59;33.83;;;11.32;;
38007;SDS011;75335;50.812;12.376;2024-01-27T22:35:27;23.83;;;9.80;;
38007;SDS011;75335;50.812;12.376;2024-01-27T22:37:55;26.17;;;10.05;;
38007;SDS011;75335;50.812;12.376;2024-01-27T22:40:25;27.30;;;9.73;;
38007;SDS011;75335;50.812;12.376;2024-01-27T22:42:54;27.00;;;9.32;;
38007;SDS011;75335;50.812;12.376;2024-01-27T22:45:24;33.25;;;10.00;;
38007;SDS011;75335;50.812;12.376;2024-01-27T22:47:52;26.35;;;8.60;;
38007;SDS011;75335;50.812;12.376;2024-01-27T22:50:20;33.45;;;10.50;;
38007;SDS011;75335;50.812;12.376;2024-01-27T22:52:48;35.38;;;9.00;;
38007;SDS011;75335;50.812;12.376;2024-01-27T22:55:30;23.45;;;8.82;;
38007;SDS011;75335;50.812;12.376;2024-01-27T22:57:58;31.85;;;9.52;;
38007;SDS011;75335;50.812;12.376;2024-01-27T23:00:26;30.55;;;10.15;;
38007;SDS011;75335;50.812;12.376;2024-01-27T23:05:34;25.42;;;9.35;;
38007;SDS011;75335;50.812;12.376;2024-01-27T23:08:02;31.77;;;10.88;;
38007;SDS011;75335;50.812;12.376;2024-01-27T23:10:31;34.40;;;11.27;;
38007;SDS011;75335;50.812;12.376;2024-01-27T23:13:01;32.83;;;10.70;;
38007;SDS011;75335;50.812;12.376;2024-01-27T23:15:29;32.45;;;12.48;;
38007;SDS011;75335;50.812;12.376;2024-01-27T23:18:05;39.90;;;9.57;;
38007;SDS011;75335;50.812;12.376;2024-01-27T23:20:33;27.55;;;10.13;;
38007;SDS011;75335;50.812;12.376;2024-01-27T23:23:01;28.70;;;9.73;;
38007;SDS011;75335;50.812;12.376;2024-01-27T23:25:29;36.85;;;10.52;;
38007;SDS011;75335;50.812;12.376;2024-01-27T23:27:58;30.08;;;9.93;;
38007;SDS011;75335;50.812;12.376;2024-01-27T23:30:28;26.00;;;10.30;;
38007;SDS011;75335;50.812;12.376;2024-01-27T23:32:58;36.20;;;9.85;;
38007;SDS011;75335;50.812;12.376;2024-01-27T23:35:27;24.40;;;8.23;;
38007;SDS011;75335;50.812;12.376;2024-01-27T23:37:56;35.45;;;10.07;;
38007;SDS011;75335;50.812;12.376;2024-01-27T23:40:24;37.47;;;11.35;;
38007;SDS011;75335;50.812;12.376;2024-01-27T23:42:54;25.52;;;9.00;;
38007;SDS011;75335;50.812;12.376;2024-01-27T23:45:28;31.00;;;9.55;;
38007;SDS011;75335;50.812;12.376;2024-01-27T23:47:56;31.08;;;9.52;;
38007;SDS011;75335;50.812;12.376;2024-01-27T23:50:26;20.87;;;9.27;;
38007;SDS011;75335;50.812;12.376;2024-01-27T23:52:54;27.80;;;8.93;;
38007;SDS011;75335;50.812;12.376;2024-01-27T23:55:22;31.80;;;8.70;;
38007;SDS011;75335;50.812;12.376;2024-01-27T23:57:53;33.08;;;9.75;;
